Time;durP1;ratioP1;P1;durP2;ratioP2;P2;SDS_P1;SDS_P2;PMS_P1;PMS_P2;Temp;Humidity;BMP_temperature;BMP_pressure;BME280_temperature;BME280_humidity;BME280_pressure;Samples;Min_cycle;Max_cycle;Signal;HPM_P1;HPM_P2
2021/12/27 00:00:26;;;;;;;18.70;10.53;;;-1.20;99.90;;;;;;5047497;28;20049;-77
2021/12/27 00:02:59;;;;;;;21.53;12.40;;;-1.20;99.90;;;;;;5031160;28;20049;-74
2021/12/27 00:05:25;;;;;;;16.13;9.27;;;-1.20;99.90;;;;;;5014906;28;20045;-77
2021/12/27 00:07:53;;;;;;;19.37;11.13;;;-1.20;99.90;;;;;;5047253;28;20084;-78
2021/12/27 00:10:20;;;;;;;21.27;12.57;;;-1.30;99.90;;;;;;5014568;28;20069;-73
2021/12/27 00:12:46;;;;;;;20.63;11.20;;;-1.20;99.90;;;;;;5047732;28;20084;-74
2021/12/27 00:15:13;;;;;;;20.13;12.37;;;-1.20;99.90;;;;;;5014418;28;20084;-73
2021/12/27 00:17:40;;;;;;;22.30;12.93;;;-1.30;99.90;;;;;;5047133;28;20392;-78
2021/12/27 00:20:11;;;;;;;20.23;11.67;;;-1.20;99.90;;;;;;5030037;28;20063;-78
2021/12/27 00:22:38;;;;;;;20.03;11.47;;;-1.20;99.90;;;;;;5014005;28;20069;-74
2021/12/27 00:25:05;;;;;;;19.57;11.33;;;-1.20;99.90;;;;;;5030575;28;20054;-78
2021/12/27 00:27:31;;;;;;;19.23;10.33;;;-1.20;99.90;;;;;;5014970;28;20460;-74
2021/12/27 00:29:57;;;;;;;19.03;11.77;;;-1.20;99.90;;;;;;5014515;28;20038;-77
2021/12/27 00:32:23;;;;;;;18.70;10.87;;;-1.20;99.90;;;;;;5014326;28;20076;-73
2021/12/27 00:34:49;;;;;;;19.03;11.37;;;-1.30;99.90;;;;;;5030694;28;20048;-78
2021/12/27 00:37:14;;;;;;;20.10;11.40;;;-1.30;99.90;;;;;;5031092;28;20056;-74
2021/12/27 00:39:40;;;;;;;18.97;11.27;;;-1.30;99.90;;;;;;5030435;28;20432;-75
2021/12/27 00:42:06;;;;;;;18.80;11.23;;;-1.30;99.90;;;;;;5047244;28;20214;-73
2021/12/27 00:44:33;;;;;;;18.60;10.90;;;-1.40;99.90;;;;;;5030538;28;20106;-74
2021/12/27 00:46:59;;;;;;;23.00;11.17;;;-1.40;99.90;;;;;;5030701;28;20065;-73
2021/12/27 00:49:25;;;;;;;20.77;12.07;;;-1.30;99.90;;;;;;5030313;28;20087;-74
2021/12/27 00:51:51;;;;;;;19.77;11.50;;;-1.40;99.90;;;;;;5047180;28;20041;-73
2021/12/27 00:54:17;;;;;;;18.70;11.40;;;-1.40;99.90;;;;;;5030584;28;20057;-77
2021/12/27 00:56:44;;;;;;;18.97;11.03;;;-1.50;99.90;;;;;;5047531;28;20076;-78
2021/12/27 00:59:09;;;;;;;22.63;12.37;;;-1.50;99.90;;;;;;5046664;28;20073;-74
2021/12/27 01:01:35;;;;;;;19.00;11.60;;;-1.50;99.90;;;;;;5030768;28;20069;-74
2021/12/27 01:04:01;;;;;;;19.03;10.90;;;-1.50;99.90;;;;;;5014326;28;20146;-78
2021/12/27 01:06:27;;;;;;;18.63;11.97;;;-1.50;99.90;;;;;;5030628;28;20045;-77
2021/12/27 01:08:53;;;;;;;20.17;11.37;;;-1.50;99.90;;;;;;5030372;28;20476;-77
2021/12/27 01:11:38;;;;;;;20.87;11.53;;;-1.50;99.90;;;;;;4997688;28;20132;-77
2021/12/27 01:14:11;;;;;;;20.17;11.37;;;-1.60;99.90;;;;;;5030376;28;20049;-74
2021/12/27 01:16:39;;;;;;;20.57;11.17;;;-1.60;99.90;;;;;;5030529;28;20056;-78
2021/12/27 01:19:06;;;;;;;19.73;11.70;;;-1.60;99.90;;;;;;5030408;28;20045;-77
2021/12/27 01:21:32;;;;;;;19.57;11.40;;;-1.60;99.90;;;;;;5030303;28;20084;-74
2021/12/27 01:23:58;;;;;;;20.57;12.13;;;-1.60;99.90;;;;;;5029902;28;20033;-78
2021/12/27 01:26:25;;;;;;;19.87;10.97;;;-1.60;99.90;;;;;;5030953;28;20427;-74
2021/12/27 01:28:53;;;;;;;19.93;12.10;;;-1.60;99.90;;;;;;5014038;28;20057;-73
2021/12/27 01:31:19;;;;;;;19.33;11.73;;;-1.70;99.90;;;;;;5017611;28;20049;-73
2021/12/27 01:33:46;;;;;;;19.70;11.60;;;-1.60;99.90;;;;;;5050821;28;20068;-77
2021/12/27 01:36:13;;;;;;;18.83;10.63;;;-1.60;99.90;;;;;;5033538;28;20054;-73
2021/12/27 01:38:40;;;;;;;16.63;9.90;;;-1.60;99.90;;;;;;5033310;28;20045;-78
2021/12/27 01:41:08;;;;;;;19.27;12.07;;;-1.60;99.90;;;;;;5017017;28;20102;-77
2021/12/27 01:43:36;;;;;;;18.57;11.57;;;-1.60;99.90;;;;;;5034125;28;20049;-76
2021/12/27 01:46:05;;;;;;;20.17;11.97;;;-1.70;99.90;;;;;;5033833;28;20049;-77
2021/12/27 01:48:37;;;;;;;18.17;10.43;;;-1.70;99.90;;;;;;5032635;28;20050;-78
2021/12/27 01:51:05;;;;;;;19.93;11.83;;;-1.70;99.90;;;;;;5033768;28;20518;-74
2021/12/27 01:53:32;;;;;;;19.43;9.30;;;-1.70;99.90;;;;;;5016640;28;20118;-78
2021/12/27 01:55:59;;;;;;;19.70;11.80;;;-1.60;99.90;;;;;;5012267;28;20102;-77
2021/12/27 01:58:26;;;;;;;22.83;12.10;;;-1.70;99.90;;;;;;5033757;28;20045;-74
2021/12/27 02:00:54;;;;;;;18.80;10.17;;;-1.60;99.90;;;;;;5016229;28;20069;-77
2021/12/27 02:03:23;;;;;;;18.30;11.17;;;-1.60;99.90;;;;;;5033401;28;20138;-74
2021/12/27 02:05:49;;;;;;;24.70;13.00;;;-1.60;99.90;;;;;;5033487;28;20121;-77
2021/12/27 02:08:15;;;;;;;24.47;12.77;;;-1.70;99.90;;;;;;5033068;28;20085;-74
2021/12/27 02:10:43;;;;;;;19.87;11.93;;;-1.70;99.90;;;;;;5049392;28;20127;-77
2021/12/27 02:13:09;;;;;;;26.40;13.47;;;-1.70;99.90;;;;;;5050032;28;20392;-73
2021/12/27 02:15:35;;;;;;;20.50;12.60;;;-1.70;99.90;;;;;;5016561;28;20041;-73
2021/12/27 02:18:02;;;;;;;19.67;12.40;;;-1.80;99.90;;;;;;5033194;28;20052;-77
2021/12/27 02:20:33;;;;;;;20.13;13.00;;;-1.70;99.90;;;;;;5048794;28;20037;-73
2021/12/27 02:23:02;;;;;;;22.40;12.40;;;-1.80;99.90;;;;;;5049506;28;20137;-77
2021/12/27 02:25:30;;;;;;;22.97;12.07;;;-1.80;99.90;;;;;;5032576;28;20041;-73
2021/12/27 02:27:57;;;;;;;22.43;13.47;;;-1.80;99.90;;;;;;5049011;28;20128;-77
2021/12/27 02:30:23;;;;;;;20.60;11.80;;;-1.70;99.90;;;;;;5032584;28;20046;-77
2021/12/27 02:32:55;;;;;;;20.67;12.97;;;-1.70;99.90;;;;;;5032579;28;20040;-73
2021/12/27 02:35:27;;;;;;;21.80;13.33;;;-1.70;99.90;;;;;;5049417;28;20037;-74
2021/12/27 02:37:54;;;;;;;20.00;12.83;;;-1.70;99.90;;;;;;5033038;28;20057;-74
2021/12/27 02:40:22;;;;;;;21.37;12.93;;;-1.70;99.90;;;;;;5031556;28;20041;-77
2021/12/27 02:43:04;;;;;;;21.93;12.90;;;-1.70;99.90;;;;;;5015680;28;20069;-77
2021/12/27 02:45:33;;;;;;;21.13;11.90;;;-1.70;99.90;;;;;;5032607;28;20137;-77
2021/12/27 02:47:59;;;;;;;19.83;13.17;;;-1.60;99.90;;;;;;5015920;28;20404;-73
2021/12/27 02:50:26;;;;;;;23.27;13.67;;;-1.60;99.90;;;;;;5016389;28;20536;-78
2021/12/27 02:52:53;;;;;;;20.97;12.83;;;-1.60;99.90;;;;;;5032352;28;20049;-77
2021/12/27 02:55:19;;;;;;;21.67;13.10;;;-1.60;99.90;;;;;;5032211;28;20413;-76
2021/12/27 02:57:47;;;;;;;22.30;12.67;;;-1.60;99.90;;;;;;5032172;28;20041;-74
2021/12/27 03:00:17;;;;;;;19.70;13.10;;;-1.50;99.90;;;;;;5031827;28;20049;-74
2021/12/27 03:02:44;;;;;;;20.23;12.23;;;-1.50;99.90;;;;;;5032588;28;20060;-77
2021/12/27 03:05:12;;;;;;;21.27;13.13;;;-1.50;99.90;;;;;;5016102;28;20515;-74
2021/12/27 03:07:39;;;;;;;23.40;14.53;;;-1.50;99.90;;;;;;5016009;28;20045;-73
2021/12/27 03:10:07;;;;;;;20.70;12.40;;;-1.50;99.90;;;;;;4998701;28;20038;-77
2021/12/27 03:12:33;;;;;;;20.43;12.73;;;-1.50;99.90;;;;;;5048811;28;20512;-77
2021/12/27 03:14:59;;;;;;;23.23;13.77;;;-1.40;99.90;;;;;;5032205;28;20076;-73
2021/12/27 03:17:24;;;;;;;21.40;13.50;;;-1.40;99.90;;;;;;5048588;28;20041;-77
2021/12/27 03:19:50;;;;;;;24.23;13.70;;;-1.40;99.90;;;;;;5032085;28;20068;-77
2021/12/27 03:22:16;;;;;;;22.03;13.00;;;-1.40;99.90;;;;;;5048218;28;20128;-75
2021/12/27 03:24:41;;;;;;;24.00;13.10;;;-1.40;99.90;;;;;;5031323;28;20052;-74
2021/12/27 03:27:07;;;;;;;24.20;14.03;;;-1.40;99.90;;;;;;5015343;28;20041;-77
2021/12/27 03:29:33;;;;;;;22.93;13.67;;;-1.30;99.90;;;;;;5032010;28;20041;-77
2021/12/27 03:31:58;;;;;;;20.30;12.87;;;-1.30;99.90;;;;;;5031572;28;20132;-77
2021/12/27 03:34:24;;;;;;;22.37;14.53;;;-1.30;99.90;;;;;;4998632;28;20040;-77
2021/12/27 03:36:50;;;;;;;20.07;12.43;;;-1.30;99.90;;;;;;5031336;28;20381;-77
2021/12/27 03:39:16;;;;;;;24.30;14.03;;;-1.30;99.90;;;;;;5048550;28;20071;-74
2021/12/27 03:41:41;;;;;;;23.57;14.37;;;-1.20;99.90;;;;;;5047712;28;20084;-74
2021/12/27 03:44:07;;;;;;;21.50;11.90;;;-1.20;99.90;;;;;;5015303;28;20488;-76
2021/12/27 03:46:33;;;;;;;23.30;14.50;;;-1.20;99.90;;;;;;5015220;28;20068;-74
2021/12/27 03:48:59;;;;;;;25.30;14.07;;;-1.20;99.90;;;;;;5047659;28;20552;-77
2021/12/27 03:51:25;;;;;;;19.50;12.83;;;-1.20;99.90;;;;;;5031621;28;20037;-74
2021/12/27 03:53:51;;;;;;;24.20;14.83;;;-1.10;99.90;;;;;;5030628;28;20053;-77
2021/12/27 03:56:17;;;;;;;23.10;14.90;;;-1.10;99.90;;;;;;5014825;28;20052;-75
2021/12/27 03:58:53;;;;;;;24.90;13.73;;;-1.10;99.90;;;;;;4998386;28;20408;-77
2021/12/27 04:01:21;;;;;;;21.70;12.90;;;-1.10;99.90;;;;;;5026219;28;20053;-77
2021/12/27 04:03:52;;;;;;;20.97;14.37;;;-1.10;99.90;;;;;;5031306;28;20999;-77
2021/12/27 04:06:21;;;;;;;23.30;13.90;;;-1.10;99.90;;;;;;5031238;28;20049;-77
2021/12/27 04:08:47;;;;;;;23.57;14.53;;;-1.10;99.90;;;;;;5015549;28;20533;-74
2021/12/27 04:11:14;;;;;;;31.03;14.73;;;-1.00;99.90;;;;;;4998003;28;20049;-74
2021/12/27 04:13:40;;;;;;;23.10;14.07;;;-1.10;99.90;;;;;;5047655;28;20177;-73
2021/12/27 04:16:06;;;;;;;27.60;13.63;;;-1.00;99.90;;;;;;5014806;28;20076;-73
2021/12/27 04:18:32;;;;;;;24.97;14.23;;;-1.00;99.90;;;;;;5030415;28;20076;-73
2021/12/27 04:20:57;;;;;;;25.13;15.63;;;-1.00;99.90;;;;;;4998424;28;20472;-77
2021/12/27 04:23:23;;;;;;;22.73;13.57;;;-1.00;99.90;;;;;;5031073;28;20419;-74
2021/12/27 04:25:49;;;;;;;25.03;14.67;;;-1.00;99.90;;;;;;5014484;28;20485;-77
2021/12/27 04:28:16;;;;;;;23.40;14.27;;;-1.00;99.90;;;;;;5014681;28;20046;-74
2021/12/27 04:30:43;;;;;;;25.83;15.47;;;-1.00;99.90;;;;;;5031142;28;20050;-77
2021/12/27 04:33:08;;;;;;;24.27;13.13;;;-1.00;99.90;;;;;;5030770;28;20041;-77
2021/12/27 04:35:35;;;;;;;27.37;15.60;;;-1.00;99.90;;;;;;5047588;28;20100;-77
2021/12/27 04:38:01;;;;;;;27.40;15.77;;;-1.00;99.90;;;;;;5030992;28;20039;-74
2021/12/27 04:40:31;;;;;;;26.53;16.73;;;-1.00;99.90;;;;;;5030633;28;20488;-77
2021/12/27 04:43:08;;;;;;;26.13;14.90;;;-1.00;99.90;;;;;;5047789;28;20046;-74
2021/12/27 04:45:34;;;;;;;27.33;17.20;;;-1.00;99.90;;;;;;5030353;28;20033;-77
2021/12/27 04:48:01;;;;;;;29.50;16.67;;;-1.10;99.90;;;;;;5031158;28;20079;-77
2021/12/27 04:50:28;;;;;;;28.10;17.47;;;-1.10;99.90;;;;;;5030293;28;20084;-74
2021/12/27 04:52:53;;;;;;;28.17;16.07;;;-1.10;99.90;;;;;;5047209;28;20058;-77
2021/12/27 04:55:21;;;;;;;29.67;16.97;;;-1.10;99.90;;;;;;5046701;28;20056;-77
2021/12/27 04:57:47;;;;;;;28.87;17.60;;;-1.10;99.90;;;;;;5030796;28;20073;-77
2021/12/27 05:00:14;;;;;;;26.57;16.53;;;-1.10;99.90;;;;;;5014317;28;20050;-74
2021/12/27 05:02:40;;;;;;;28.87;17.73;;;-1.00;99.90;;;;;;5014295;28;20076;-77
2021/12/27 05:05:06;;;;;;;26.63;16.33;;;-1.00;99.90;;;;;;5032995;28;20512;-74
2021/12/27 05:07:31;;;;;;;32.43;17.83;;;-1.00;99.90;;;;;;5034406;28;20040;-74
2021/12/27 05:09:57;;;;;;;28.83;16.57;;;-1.00;99.90;;;;;;5001898;28;20045;-74
2021/12/27 05:12:23;;;;;;;29.13;16.50;;;-1.00;99.90;;;;;;5051368;28;20124;-77
2021/12/27 05:14:48;;;;;;;26.30;16.33;;;-1.00;99.90;;;;;;5017520;28;20041;-77
2021/12/27 05:17:14;;;;;;;29.30;17.30;;;-1.00;99.90;;;;;;5050570;28;20072;-74
2021/12/27 05:19:40;;;;;;;26.77;16.43;;;-0.90;99.90;;;;;;5018171;28;20053;-77
2021/12/27 05:22:05;;;;;;;25.37;15.63;;;-0.90;99.90;;;;;;5034415;28;20037;-77
2021/12/27 05:24:31;;;;;;;27.83;16.50;;;-0.90;99.90;;;;;;5051046;28;20049;-74
2021/12/27 05:26:57;;;;;;;27.13;16.80;;;-0.90;99.90;;;;;;5033698;28;20500;-74
2021/12/27 05:29:23;;;;;;;27.10;16.93;;;-0.90;99.90;;;;;;5034544;28;20053;-77
2021/12/27 05:31:49;;;;;;;25.80;16.60;;;-0.80;99.90;;;;;;5034007;28;20063;-74
2021/12/27 05:34:16;;;;;;;29.57;16.47;;;-0.80;99.90;;;;;;5050508;28;20041;-77
2021/12/27 05:36:43;;;;;;;30.47;17.37;;;-0.80;99.90;;;;;;5017969;28;20046;-74
2021/12/27 05:39:11;;;;;;;31.73;17.83;;;-0.80;99.90;;;;;;5050359;28;20057;-78
2021/12/27 05:41:36;;;;;;;34.80;19.30;;;-0.80;99.90;;;;;;5049781;28;20128;-74
2021/12/27 05:44:03;;;;;;;32.40;19.47;;;-0.80;99.90;;;;;;5017930;28;20551;-78
2021/12/27 05:46:30;;;;;;;31.67;18.83;;;-0.90;99.90;;;;;;5050176;28;20100;-74
2021/12/27 05:48:56;;;;;;;34.23;20.90;;;-0.90;99.90;;;;;;5050718;28;20127;-77
2021/12/27 05:51:21;;;;;;;33.70;19.90;;;-0.90;99.90;;;;;;5016859;28;20037;-75
2021/12/27 05:53:47;;;;;;;41.50;22.40;;;-0.90;99.90;;;;;;5033731;28;20057;-74
2021/12/27 05:56:13;;;;;;;38.13;20.50;;;-0.90;99.90;;;;;;5032709;28;20049;-74
2021/12/27 05:58:38;;;;;;;37.97;20.73;;;-0.90;99.90;;;;;;5050286;28;20049;-74
2021/12/27 06:01:04;;;;;;;37.60;21.30;;;-0.90;99.90;;;;;;5016906;28;20412;-74
2021/12/27 06:03:30;;;;;;;39.63;21.57;;;-0.90;99.90;;;;;;5032883;28;20065;-77
2021/12/27 06:05:55;;;;;;;38.80;21.37;;;-1.00;99.90;;;;;;5016990;28;20111;-74
2021/12/27 06:08:21;;;;;;;45.30;23.90;;;-0.90;99.90;;;;;;5033060;28;20053;-78
2021/12/27 06:10:47;;;;;;;40.67;21.57;;;-0.90;99.90;;;;;;5049881;28;20045;-74
2021/12/27 06:13:13;;;;;;;44.57;23.03;;;-0.90;99.90;;;;;;5033045;28;20456;-77
2021/12/27 06:15:38;;;;;;;42.20;21.57;;;-0.90;99.90;;;;;;5033028;28;20049;-78
2021/12/27 06:18:04;;;;;;;43.37;22.13;;;-0.90;99.90;;;;;;5049874;28;20179;-78
2021/12/27 06:20:30;;;;;;;48.23;25.60;;;-0.90;99.90;;;;;;5032625;28;20053;-74
2021/12/27 06:22:58;;;;;;;43.53;22.83;;;-0.90;99.90;;;;;;5032802;28;20048;-77
2021/12/27 06:25:24;;;;;;;50.20;24.60;;;-0.90;99.90;;;;;;5032824;28;20045;-78
2021/12/27 06:27:50;;;;;;;41.33;21.50;;;-0.90;99.90;;;;;;5000057;28;20084;-75
2021/12/27 06:30:16;;;;;;;47.83;23.50;;;-0.90;99.90;;;;;;5033564;28;20475;-74
2021/12/27 06:32:44;;;;;;;40.10;21.47;;;-0.90;99.90;;;;;;5032870;28;20045;-74
2021/12/27 06:35:11;;;;;;;48.50;22.47;;;-0.90;99.90;;;;;;5032617;28;20069;-77
2021/12/27 06:37:42;;;;;;;48.30;26.17;;;-0.90;99.90;;;;;;5015534;28;20037;-77
2021/12/27 06:40:10;;;;;;;46.30;23.10;;;-0.90;99.90;;;;;;5016414;28;20050;-77
2021/12/27 06:42:36;;;;;;;49.93;23.43;;;-0.90;99.90;;;;;;5032699;28;20381;-74
2021/12/27 06:45:03;;;;;;;46.80;23.93;;;-0.80;99.90;;;;;;4988319;28;20324;-74
2021/12/27 06:47:28;;;;;;;50.30;23.77;;;-0.90;99.90;;;;;;5049469;28;20084;-74
2021/12/27 06:49:54;;;;;;;45.97;23.00;;;-0.80;99.90;;;;;;5032629;28;20140;-77
2021/12/27 06:52:20;;;;;;;48.57;24.87;;;-0.80;99.90;;;;;;5032067;28;20061;-74
2021/12/27 06:54:46;;;;;;;53.67;23.73;;;-0.80;99.90;;;;;;5016160;28;20046;-77
2021/12/27 06:57:12;;;;;;;42.30;21.23;;;-0.80;99.90;;;;;;5015835;28;20395;-77
2021/12/27 06:59:38;;;;;;;49.20;25.17;;;-0.70;99.90;;;;;;4999462;28;20045;-74
2021/12/27 07:02:04;;;;;;;51.27;25.70;;;-0.70;99.90;;;;;;5032391;28;20090;-76
2021/12/27 07:04:31;;;;;;;42.00;21.57;;;-0.70;99.90;;;;;;5032481;28;20468;-74
2021/12/27 07:06:57;;;;;;;36.83;21.40;;;-0.70;99.90;;;;;;5048318;28;20404;-78
2021/12/27 07:09:23;;;;;;;45.37;23.83;;;-0.70;99.90;;;;;;5032632;28;20122;-74
2021/12/27 07:11:49;;;;;;;45.23;23.03;;;-0.70;99.90;;;;;;5048355;28;20061;-77
2021/12/27 07:14:15;;;;;;;44.10;23.40;;;-0.70;99.90;;;;;;5032660;28;20515;-77
2021/12/27 07:16:41;;;;;;;40.93;22.73;;;-0.70;99.90;;;;;;5031810;28;20080;-76
2021/12/27 07:19:06;;;;;;;43.40;21.93;;;-0.70;99.90;;;;;;5047725;28;20045;-77
2021/12/27 07:21:32;;;;;;;43.40;23.10;;;-0.70;99.90;;;;;;5014913;28;20121;-77
2021/12/27 07:23:58;;;;;;;40.80;22.07;;;-0.70;99.90;;;;;;5031353;28;20065;-77
2021/12/27 07:26:24;;;;;;;45.37;22.50;;;-0.70;99.90;;;;;;5048634;28;20077;-77
2021/12/27 07:28:49;;;;;;;45.87;24.80;;;-0.70;99.90;;;;;;5031657;28;20041;-74
2021/12/27 07:31:15;;;;;;;46.47;23.00;;;-0.70;99.90;;;;;;5048682;28;20496;-77
2021/12/27 07:33:41;;;;;;;54.00;23.87;;;-0.70;99.90;;;;;;5031740;28;20042;-74
2021/12/27 07:36:08;;;;;;;44.47;23.30;;;-0.70;99.90;;;;;;5015214;28;20049;-77
2021/12/27 07:38:38;;;;;;;44.33;23.97;;;-0.70;99.90;;;;;;5014699;28;20073;-77
2021/12/27 07:41:04;;;;;;;46.97;24.10;;;-0.70;99.90;;;;;;5031415;28;20050;-77
2021/12/27 07:43:30;;;;;;;50.57;24.50;;;-0.70;99.90;;;;;;5014903;28;20049;-78
2021/12/27 07:45:56;;;;;;;49.23;24.73;;;-0.60;99.90;;;;;;5031855;28;20060;-74
2021/12/27 07:48:21;;;;;;;47.30;23.40;;;-0.60;99.90;;;;;;5047616;28;20068;-77
2021/12/27 07:50:47;;;;;;;44.97;23.30;;;-0.60;99.90;;;;;;5031136;28;20189;-77
2021/12/27 07:53:13;;;;;;;48.67;25.27;;;-0.60;99.90;;;;;;5030591;28;20140;-74
2021/12/27 07:55:39;;;;;;;48.43;25.63;;;-0.60;99.90;;;;;;5031401;28;20053;-77
2021/12/27 07:58:04;;;;;;;55.80;26.30;;;-0.60;99.90;;;;;;5030899;28;20102;-77
2021/12/27 08:00:31;;;;;;;55.30;25.83;;;-0.60;99.90;;;;;;5047826;28;20049;-74
2021/12/27 08:02:56;;;;;;;49.27;23.87;;;-0.60;99.90;;;;;;5031005;28;20037;-77
2021/12/27 08:05:22;;;;;;;56.80;27.03;;;-0.60;99.90;;;;;;5030796;28;20551;-74
2021/12/27 08:07:48;;;;;;;53.83;24.70;;;-0.40;99.90;;;;;;5014438;28;20076;-77
2021/12/27 08:10:15;;;;;;;52.73;25.60;;;-0.50;99.90;;;;;;5030832;28;20048;-74
2021/12/27 08:12:42;;;;;;;50.80;25.20;;;-0.60;99.90;;;;;;5030779;28;20049;-74
2021/12/27 08:15:09;;;;;;;54.37;26.43;;;-0.60;99.90;;;;;;5030865;28;20049;-74
2021/12/27 08:17:36;;;;;;;59.57;28.87;;;-0.60;99.90;;;;;;5030806;28;20037;-74
2021/12/27 08:20:04;;;;;;;50.03;25.63;;;-0.60;99.90;;;;;;5047974;28;20045;-77
2021/12/27 08:22:29;;;;;;;64.43;28.87;;;-0.60;99.90;;;;;;5047353;28;20073;-74
2021/12/27 08:24:55;;;;;;;63.33;28.67;;;-0.50;99.90;;;;;;5014676;28;20072;-74
2021/12/27 08:27:23;;;;;;;58.67;27.67;;;-0.60;99.90;;;;;;5014646;28;20496;-77
2021/12/27 08:29:49;;;;;;;50.07;24.50;;;-0.60;99.90;;;;;;5047364;28;20119;-74
2021/12/27 08:32:17;;;;;;;66.63;29.00;;;-0.50;99.90;;;;;;5047544;28;20076;-73
2021/12/27 08:34:43;;;;;;;68.67;30.87;;;-0.50;99.90;;;;;;5031262;28;20543;-74
2021/12/27 08:37:09;;;;;;;70.93;30.13;;;-0.50;99.90;;;;;;5031092;28;20128;-77
2021/12/27 08:39:35;;;;;;;59.27;26.27;;;-0.50;99.90;;;;;;5050877;28;20064;-77
2021/12/27 08:42:02;;;;;;;66.30;28.10;;;-0.50;99.90;;;;;;5050895;28;20049;-74
2021/12/27 08:44:28;;;;;;;62.93;27.37;;;-0.50;99.90;;;;;;5002306;28;20050;-77
2021/12/27 08:46:53;;;;;;;59.50;27.50;;;-0.50;99.90;;;;;;5034666;28;20087;-74
2021/12/27 08:49:19;;;;;;;55.87;26.90;;;-0.50;99.90;;;;;;5035279;28;20038;-74
2021/12/27 08:51:45;;;;;;;74.57;30.00;;;-0.50;99.90;;;;;;5033918;28;20033;-77
2021/12/27 08:54:11;;;;;;;69.67;27.43;;;-0.40;99.90;;;;;;5027772;28;20412;-74
2021/12/27 08:56:38;;;;;;;79.33;28.47;;;-0.40;99.90;;;;;;5034658;28;20048;-77
2021/12/27 08:59:04;;;;;;;83.93;29.60;;;-0.40;99.90;;;;;;5034156;28;20099;-74
2021/12/27 09:01:30;;;;;;;83.93;32.80;;;-0.40;99.90;;;;;;5034669;28;20060;-77
2021/12/27 09:03:56;;;;;;;67.73;29.50;;;-0.40;99.90;;;;;;5034907;28;20049;-74
2021/12/27 09:06:22;;;;;;;81.63;31.13;;;-0.30;99.90;;;;;;5051018;28;20125;-74
2021/12/27 09:08:48;;;;;;;91.30;33.57;;;-0.30;99.90;;;;;;5051073;28;20041;-74
2021/12/27 09:11:15;;;;;;;85.47;32.77;;;-0.30;99.90;;;;;;5033814;28;20052;-74
2021/12/27 09:13:40;;;;;;;83.03;29.30;;;-0.30;99.90;;;;;;5034501;28;20152;-74
2021/12/27 09:16:08;;;;;;;92.70;33.03;;;-0.20;99.90;;;;;;5034345;28;20073;-77
2021/12/27 09:18:35;;;;;;;107.97;35.40;;;-0.20;99.90;;;;;;5034500;28;20120;-74
2021/12/27 09:21:01;;;;;;;106.47;35.30;;;-0.10;99.90;;;;;;5050745;28;20294;-74
2021/12/27 09:23:28;;;;;;;107.67;35.23;;;-0.10;99.90;;;;;;5034527;28;20057;-77
2021/12/27 09:25:54;;;;;;;107.07;35.67;;;-0.10;99.90;;;;;;5034075;28;20042;-74
2021/12/27 09:28:19;;;;;;;98.47;31.23;;;-0.10;99.90;;;;;;5033352;28;20037;-74
2021/12/27 09:30:45;;;;;;;87.53;31.43;;;-0.10;99.90;;;;;;5034237;28;20045;-76
2021/12/27 09:33:11;;;;;;;116.53;34.30;;;-0.10;99.90;;;;;;5050451;28;20487;-74
2021/12/27 09:35:37;;;;;;;121.27;35.83;;;-0.10;99.90;;;;;;5050623;28;20397;-74
2021/12/27 09:38:04;;;;;;;101.83;30.90;;;-0.10;99.90;;;;;;5050502;28;20399;-74
2021/12/27 09:40:30;;;;;;;127.37;37.63;;;0.00;99.90;;;;;;5050019;28;20049;-74
2021/12/27 09:42:56;;;;;;;119.67;34.70;;;0.00;99.90;;;;;;5016774;28;20047;-75
2021/12/27 09:45:22;;;;;;;125.40;36.87;;;0.00;99.90;;;;;;5049776;28;20068;-74
2021/12/27 09:47:50;;;;;;;129.03;36.67;;;0.00;99.90;;;;;;5017021;28;20042;-74
2021/12/27 09:50:32;;;;;;;126.00;37.47;;;0.00;99.90;;;;;;5033091;28;20057;-77
2021/12/27 09:52:58;;;;;;;126.73;38.13;;;0.10;99.90;;;;;;5033621;28;20092;-77
2021/12/27 09:55:24;;;;;;;119.40;35.37;;;0.10;99.90;;;;;;5032877;28;20042;-75
2021/12/27 09:57:50;;;;;;;131.00;38.70;;;0.10;99.90;;;;;;5032697;28;20404;-78
2021/12/27 10:00:17;;;;;;;126.17;36.77;;;0.10;99.90;;;;;;5000034;28;20074;-77
2021/12/27 10:02:43;;;;;;;121.07;37.20;;;0.10;99.90;;;;;;5033323;28;20045;-78
2021/12/27 10:05:09;;;;;;;100.97;32.17;;;0.00;99.90;;;;;;5017436;28;20385;-78
2021/12/27 10:07:41;;;;;;;114.13;36.00;;;0.10;99.90;;;;;;5033848;28;20049;-77
2021/12/27 10:10:10;;;;;;;119.20;36.60;;;0.10;99.90;;;;;;5018140;28;20057;-74
2021/12/27 10:12:37;;;;;;;112.87;33.43;;;0.10;99.90;;;;;;5033933;28;20179;-78
2021/12/27 10:15:09;;;;;;;110.47;36.33;;;0.10;99.90;;;;;;5017556;28;20411;-78
2021/12/27 10:17:37;;;;;;;99.83;36.20;;;0.10;99.90;;;;;;5033686;28;20049;-78
2021/12/27 10:20:18;;;;;;;93.47;32.83;;;0.10;99.90;;;;;;5033581;28;20084;-78
2021/12/27 10:22:50;;;;;;;126.57;37.53;;;0.20;99.90;;;;;;5033413;28;20049;-78
2021/12/27 10:25:21;;;;;;;118.20;36.77;;;0.20;99.90;;;;;;5033490;28;20037;-75
2021/12/27 10:27:49;;;;;;;131.07;39.37;;;0.20;99.90;;;;;;5033378;28;20052;-78
2021/12/27 10:30:18;;;;;;;120.83;39.13;;;0.20;99.90;;;;;;5033407;28;20048;-78
2021/12/27 10:33:22;;;;;;;119.27;39.30;;;0.20;99.90;;;;;;5017140;28;20128;-77
2021/12/27 10:35:57;;;;;;;117.72;37.03;;;0.20;99.90;;;;;;5028805;28;20053;-78
2021/12/27 10:38:29;;;;;;;116.73;36.90;;;0.30;99.90;;;;;;5035717;28;20123;-79
2021/12/27 10:41:00;;;;;;;134.37;38.07;;;0.30;99.90;;;;;;5032548;28;20073;-75
2021/12/27 10:43:42;;;;;;;129.83;39.27;;;0.30;99.90;;;;;;5048784;28;20052;-75
2021/12/27 10:46:19;;;;;;;134.47;37.43;;;0.40;99.90;;;;;;5048705;28;20485;-79
2021/12/27 10:48:54;;;;;;;141.37;38.73;;;0.40;99.90;;;;;;5032540;28;20045;-78
2021/12/27 10:51:20;;;;;;;102.50;31.03;;;0.50;99.90;;;;;;5032106;28;20037;-79
2021/12/27 10:53:47;;;;;;;149.70;41.43;;;0.50;99.90;;;;;;5047758;28;20070;-76
2021/12/27 10:56:14;;;;;;;176.80;43.57;;;0.50;99.90;;;;;;5032636;28;20523;-79
2021/12/27 10:58:50;;;;;;;148.90;38.73;;;0.60;99.90;;;;;;5031671;28;20049;-75
2021/12/27 11:01:19;;;;;;;168.43;40.87;;;0.60;99.90;;;;;;5048518;28;20051;-78
2021/12/27 11:03:54;;;;;;;157.50;43.27;;;0.70;99.90;;;;;;5032131;28;20317;-75
2021/12/27 11:06:22;;;;;;;205.90;43.90;;;0.70;99.90;;;;;;5032889;28;20543;-75
2021/12/27 11:08:48;;;;;;;217.00;50.13;;;0.80;99.90;;;;;;5031912;28;20052;-76
2021/12/27 11:11:16;;;;;;;189.60;43.10;;;0.90;99.90;;;;;;5032608;28;20045;-78
2021/12/27 11:13:43;;;;;;;200.40;44.00;;;0.90;99.90;;;;;;5015294;28;20424;-79
2021/12/27 11:16:09;;;;;;;229.60;47.10;;;1.00;99.90;;;;;;5048876;28;20060;-76
2021/12/27 11:18:35;;;;;;;202.50;42.67;;;1.00;99.90;;;;;;5032079;28;20038;-76
2021/12/27 11:21:04;;;;;;;183.73;41.77;;;1.00;99.90;;;;;;5047537;28;20124;-75
2021/12/27 11:23:31;;;;;;;188.63;39.70;;;1.00;99.90;;;;;;5031466;28;20060;-79
2021/12/27 11:26:06;;;;;;;160.10;41.23;;;1.00;99.90;;;;;;5031642;28;20041;-76
2021/12/27 11:28:42;;;;;;;155.47;36.53;;;1.00;99.90;;;;;;5014533;28;20077;-76
2021/12/27 11:31:28;;;;;;;168.20;38.03;;;1.10;99.90;;;;;;5047219;28;20053;-78
2021/12/27 11:34:03;;;;;;;173.57;40.13;;;1.20;99.90;;;;;;5014774;28;20041;-78
2021/12/27 11:36:32;;;;;;;161.67;37.80;;;1.30;99.90;;;;;;5031565;28;20037;-78
2021/12/27 11:39:00;;;;;;;189.98;38.95;;;1.40;99.90;;;;;;5030481;28;20045;-78
2021/12/27 11:41:36;;;;;;;169.00;38.30;;;1.50;99.90;;;;;;5014877;28;20104;-79
2021/12/27 11:44:17;;;;;;;137.45;32.15;;;1.40;99.90;;;;;;5015160;28;20485;-76
2021/12/27 11:46:49;;;;;;;142.07;32.90;;;1.30;99.90;;;;;;5015127;28;20041;-76
2021/12/27 11:49:59;;;;;;;209.43;41.70;;;1.30;99.90;;;;;;5031119;28;20060;-76
2021/12/27 11:52:28;;;;;;;220.88;40.30;;;1.20;99.90;;;;;;5024545;28;20060;-79
2021/12/27 11:55:02;;;;;;;203.80;41.43;;;1.20;99.90;;;;;;5027414;28;20077;-79
2021/12/27 11:57:39;;;;;;;170.40;38.17;;;1.20;99.90;;;;;;5048337;28;20077;-76
2021/12/27 12:00:26;;;;;;;190.37;36.23;;;1.20;99.90;;;;;;5031137;28;20131;-77
2021/12/27 12:03:01;;;;;;;246.07;42.20;;;1.10;99.90;;;;;;5011266;28;20060;-76
2021/12/27 12:05:47;;;;;;;240.13;41.63;;;1.10;99.90;;;;;;5047984;28;20046;-77
2021/12/27 12:08:16;;;;;;;265.33;44.50;;;1.10;99.90;;;;;;5030704;28;20053;-78
2021/12/27 12:11:04;;;;;;;230.43;40.23;;;1.10;99.90;;;;;;5031415;28;20045;-77
2021/12/27 12:13:44;;;;;;;260.33;44.23;;;1.10;99.90;;;;;;5030616;28;20500;-79
2021/12/27 12:16:11;;;;;;;339.80;48.93;;;1.10;99.90;;;;;;5030553;28;20049;-79
2021/12/27 12:18:52;;;;;;;268.87;47.87;;;1.30;99.90;;;;;;5031752;28;20120;-79
2021/12/27 12:21:33;;;;;;;285.93;46.57;;;1.30;99.90;;;;;;5031753;28;20053;-79
2021/12/27 12:24:20;;;;;;;259.50;46.90;;;1.30;99.90;;;;;;5048441;28;20437;-76
2021/12/27 12:26:57;;;;;;;237.37;44.47;;;1.40;99.90;;;;;;5017717;28;20061;-79
2021/12/27 12:29:25;;;;;;;252.13;44.00;;;1.50;99.90;;;;;;5031404;28;20111;-77